Time;durP1;ratioP1;P1;durP2;ratioP2;P2;SDS_P1;SDS_P2;PMS_P1;PMS_P2;Temp;Humidity;BMP_temperature;BMP_pressure;BME280_temperature;BME280_humidity;BME280_pressure;Samples;Min_cycle;Max_cycle;Signal;HPM_P1;HPM_P2
2022/02/17 00:08:29;;;;;;;6.47;3.72;;;;;;;;;;19829198;30;20128;-62
2022/02/17 00:18:31;;;;;;;4.75;2.72;;;;;;;;;;19827877;30;20409;-60
2022/02/17 00:28:34;;;;;;;5.50;3.03;;;;;;;;;;19827357;30;20059;-60
2022/02/17 00:38:37;;;;;;;5.75;2.95;;;;;;;;;;19827392;30;20474;-59
2022/02/17 00:48:39;;;;;;;3.65;2.63;;;;;;;;;;19826241;30;20528;-59
2022/02/17 00:58:41;;;;;;;4.88;2.90;;;;;;;;;;19824294;29;20065;-58
2022/02/17 01:08:43;;;;;;;4.30;2.92;;;;;;;;;;19825060;30;20059;-59
2022/02/17 01:18:44;;;;;;;3.65;2.75;;;;;;;;;;19824551;30;20051;-63
2022/02/17 01:28:46;;;;;;;5.45;2.80;;;;;;;;;;19822731;30;20066;-60
2022/02/17 01:38:48;;;;;;;4.22;2.85;;;;;;;;;;19822503;30;20055;-60
2022/02/17 01:48:50;;;;;;;4.53;2.90;;;;;;;;;;19821715;30;20493;-60
2022/02/17 01:58:53;;;;;;;4.35;2.58;;;;;;;;;;19821880;30;20055;-61
2022/02/17 02:08:54;;;;;;;3.97;2.63;;;;;;;;;;19820060;29;20055;-59
2022/02/17 02:18:56;;;;;;;4.25;2.28;;;;;;;;;;19804735;30;20164;-57
2022/02/17 02:29:00;;;;;;;4.28;2.90;;;;;;;;;;19818506;30;20064;-59
2022/02/17 02:39:05;;;;;;;3.53;2.47;;;;;;;;;;19803485;30;20128;-62
2022/02/17 02:49:10;;;;;;;5.28;3.00;;;;;;;;;;19817630;30;20473;-61
2022/02/17 02:59:14;;;;;;;4.03;2.63;;;;;;;;;;19816444;30;20078;-59
2022/02/17 03:09:17;;;;;;;5.22;2.63;;;;;;;;;;19800764;30;20063;-61
2022/02/17 03:19:22;;;;;;;5.30;3.30;;;;;;;;;;19815454;30;20097;-61
2022/02/17 03:29:25;;;;;;;5.38;3.28;;;;;;;;;;19814772;30;20066;-60
2022/02/17 03:39:30;;;;;;;6.38;3.33;;;;;;;;;;19815074;30;20104;-60
2022/02/17 03:49:33;;;;;;;4.78;3.17;;;;;;;;;;19815138;30;20055;-60
2022/02/17 03:59:35;;;;;;;5.97;3.58;;;;;;;;;;19814265;30;20148;-62
2022/02/17 04:09:37;;;;;;;4.93;3.72;;;;;;;;;;19814503;30;20055;-60
2022/02/17 04:19:40;;;;;;;5.72;3.70;;;;;;;;;;19798235;30;20051;-61
2022/02/17 04:29:44;;;;;;;5.53;3.80;;;;;;;;;;19820296;29;20629;-59
2022/02/17 04:39:47;;;;;;;5.30;3.78;;;;;;;;;;19826888;30;20055;-62
2022/02/17 04:49:50;;;;;;;6.57;3.90;;;;;;;;;;19826364;30;20074;-61
2022/02/17 04:59:52;;;;;;;7.00;3.95;;;;;;;;;;19825259;30;20055;-61
2022/02/17 05:09:54;;;;;;;6.65;3.83;;;;;;;;;;19825277;30;20431;-60
2022/02/17 05:19:56;;;;;;;5.63;4.20;;;;;;;;;;19823837;30;20116;-60
2022/02/17 05:29:57;;;;;;;6.32;4.25;;;;;;;;;;19823163;30;20489;-61
2022/02/17 05:40:00;;;;;;;7.32;4.55;;;;;;;;;;19822439;29;20055;-62
2022/02/17 05:50:02;;;;;;;14.55;5.00;;;;;;;;;;19822148;30;20137;-62
2022/02/17 06:00:05;;;;;;;9.05;4.88;;;;;;;;;;19821302;30;20067;-61
2022/02/17 06:10:09;;;;;;;8.73;4.80;;;;;;;;;;19821779;30;20424;-61
2022/02/17 06:20:12;;;;;;;7.85;4.28;;;;;;;;;;19820064;29;20421;-63
2022/02/17 06:30:15;;;;;;;11.18;5.03;;;;;;;;;;19818977;30;20142;-62
2022/02/17 06:40:18;;;;;;;6.68;3.72;;;;;;;;;;19820892;30;20059;-60
2022/02/17 06:50:21;;;;;;;8.50;5.53;;;;;;;;;;19818512;30;20054;-59
2022/02/17 07:00:24;;;;;;;10.10;5.40;;;;;;;;;;19817085;30;20081;-59
2022/02/17 07:20:48;;;;;;;10.13;5.70;;;;;;;;;;19815710;29;20067;-59
2022/02/17 07:30:51;;;;;;;14.02;7.72;;;;;;;;;;19814949;30;20047;-61
2022/02/17 07:40:57;;;;;;;20.30;9.02;;;;;;;;;;19814739;30;20381;-59
2022/02/17 07:51:02;;;;;;;15.02;8.45;;;;;;;;;;19815416;30;20086;-59
2022/02/17 08:01:08;;;;;;;16.25;7.30;;;;;;;;;;19815910;29;20055;-61
2022/02/17 08:11:13;;;;;;;11.95;7.38;;;;;;;;;;19828620;30;20132;-59
2022/02/17 08:21:16;;;;;;;14.55;8.57;;;;;;;;;;19827678;29;20136;-60
2022/02/17 08:31:20;;;;;;;14.68;9.43;;;;;;;;;;19827097;30;20451;-61
2022/02/17 08:41:23;;;;;;;17.23;6.97;;;;;;;;;;19827052;30;20085;-59
2022/02/17 08:51:29;;;;;;;14.93;7.32;;;;;;;;;;19826108;30;20054;-60
2022/02/17 09:01:31;;;;;;;18.40;8.90;;;;;;;;;;19825537;30;20096;-60
2022/02/17 09:11:33;;;;;;;18.13;8.93;;;;;;;;;;19824592;29;20508;-61
2022/02/17 09:21:36;;;;;;;18.20;11.00;;;;;;;;;;19821952;29;20138;-58
2022/02/17 09:31:38;;;;;;;24.58;11.35;;;;;;;;;;19823095;29;20451;-61
2022/02/17 09:41:40;;;;;;;22.38;10.25;;;;;;;;;;19823688;30;20055;-65
2022/02/17 09:51:43;;;;;;;21.10;10.35;;;;;;;;;;19821699;29;20078;-61
2022/02/17 10:01:58;;;;;;;22.35;10.15;;;;;;;;;;19805196;29;20516;-61
2022/02/17 10:12:00;;;;;;;14.73;10.57;;;;;;;;;;19820669;30;20182;-59
2022/02/17 10:22:01;;;;;;;21.88;12.55;;;;;;;;;;19819092;29;20323;-59
2022/02/17 10:32:06;;;;;;;8.80;4.55;;;;;;;;;;19817788;29;20055;-60
2022/02/17 10:42:09;;;;;;;;;;;;;;;;;;19817687;30;20154;-61
2022/02/17 10:52:11;;;;;;;23.42;12.68;;;;;;;;;;19817098;30;19983;-59
2022/02/17 11:02:13;;;;;;;27.35;14.15;;;;;;;;;;19817214;29;20116;-61
2022/02/17 11:12:16;;;;;;;17.15;11.52;;;;;;;;;;19816491;30;20112;-61
2022/02/17 11:22:19;;;;;;;20.80;12.73;;;;;;;;;;19815220;29;20509;-61
2022/02/17 11:32:23;;;;;;;13.77;11.23;;;;;;;;;;19815978;29;20417;-60
2022/02/17 11:42:28;;;;;;;18.43;11.70;;;;;;;;;;19813826;29;20138;-60
2022/02/17 11:52:33;;;;;;;16.48;10.95;;;;;;;;;;19813771;30;20051;-57
2022/02/17 12:02:35;;;;;;;;;;;;;;;;;;19882097;29;20141;-58
2022/02/17 12:12:38;;;;;;;15.15;8.88;;;;;;;;;;19887934;29;20305;-56
2022/02/17 12:22:58;;;;;;;12.88;8.10;;;;;;;;;;19887646;29;20471;-64
2022/02/17 12:33:03;;;;;;;17.25;7.72;;;;;;;;;;19888525;29;20221;-62
2022/02/17 12:43:06;;;;;;;14.82;12.43;;;;;;;;;;19871830;29;20055;-59
2022/02/17 12:53:08;;;;;;;22.38;17.63;;;;;;;;;;19821027;29;20508;-59
2022/02/17 13:03:10;;;;;;;15.50;9.27;;;;;;;;;;19824365;29;20063;-57
2022/02/17 13:13:16;;;;;;;13.18;8.75;;;;;;;;;;19823430;29;20052;-62
2022/02/17 13:23:20;;;;;;;11.55;7.95;;;;;;;;;;19822233;29;20063;-62
2022/02/17 13:33:27;;;;;;;9.77;7.43;;;;;;;;;;19822889;29;20059;-60
2022/02/17 13:43:43;;;;;;;10.25;7.63;;;;;;;;;;19822076;29;20055;-61
2022/02/17 13:53:48;;;;;;;9.40;6.80;;;;;;;;;;19822473;29;20528;-59
2022/02/17 14:03:50;;;;;;;11.00;7.80;;;;;;;;;;19819740;30;20058;-61
2022/02/17 14:13:52;;;;;;;10.07;7.45;;;;;;;;;;19819883;29;20493;-59
2022/02/17 14:23:56;;;;;;;10.87;6.97;;;;;;;;;;19818808;29;20439;-59
2022/02/17 14:33:59;;;;;;;12.70;8.18;;;;;;;;;;19818323;29;20051;-60
2022/02/17 14:44:01;;;;;;;9.82;5.65;;;;;;;;;;19818036;30;20086;-60
2022/02/17 14:54:03;;;;;;;10.43;7.70;;;;;;;;;;19816937;29;20062;-62
2022/02/17 15:04:05;;;;;;;10.02;6.45;;;;;;;;;;19816214;29;20065;-62
2022/02/17 15:14:07;;;;;;;13.57;7.90;;;;;;;;;;19807602;29;20051;-61
2022/02/17 15:24:10;;;;;;;10.25;7.20;;;;;;;;;;19815252;30;20075;-61
2022/02/17 15:34:14;;;;;;;13.35;8.02;;;;;;;;;;19815322;29;20052;-62
2022/02/17 15:44:16;;;;;;;7.55;5.55;;;;;;;;;;19814775;29;20055;-61
2022/02/17 15:54:19;;;;;;;8.15;5.95;;;;;;;;;;19814350;29;20540;-60
2022/02/17 16:04:21;;;;;;;12.20;6.45;;;;;;;;;;19813849;29;20139;-62
2022/02/17 16:14:24;;;;;;;9.23;5.97;;;;;;;;;;19813560;29;20052;-63
2022/02/17 16:24:26;;;;;;;7.70;5.22;;;;;;;;;;19817849;29;20079;-60
2022/02/17 16:34:29;;;;;;;10.30;5.45;;;;;;;;;;19826870;30;20154;-63
2022/02/17 16:44:32;;;;;;;9.30;5.20;;;;;;;;;;19826803;30;20101;-62
2022/02/17 16:54:37;;;;;;;7.78;5.53;;;;;;;;;;19825685;30;20055;-60
2022/02/17 17:04:42;;;;;;;11.43;6.20;;;;;;;;;;19824779;29;20465;-60
2022/02/17 17:14:44;;;;;;;11.35;6.35;;;;;;;;;;19808679;29;20138;-61
2022/02/17 17:24:47;;;;;;;14.77;7.28;;;;;;;;;;19823423;30;20067;-61
2022/02/17 17:34:51;;;;;;;14.10;7.95;;;;;;;;;;19822247;29;20582;-62
2022/02/17 17:55:14;;;;;;;10.70;5.60;;;;;;;;;;19812204;29;20055;-64
2022/02/17 18:05:17;;;;;;;14.20;9.18;;;;;;;;;;19806870;30;20305;-61
2022/02/17 18:15:19;;;;;;;18.10;9.23;;;;;;;;;;19820079;29;20051;-60
2022/02/17 18:25:21;;;;;;;14.02;8.45;;;;;;;;;;19859464;29;20441;-68
2022/02/17 18:35:23;;;;;;;24.55;11.07;;;;;;;;;;19861995;29;20059;-66
2022/02/17 18:45:27;;;;;;;28.60;10.13;;;;;;;;;;19891821;29;20062;-57
2022/02/17 18:55:30;;;;;;;25.90;9.38;;;;;;;;;;19885896;29;20055;-66
2022/02/17 19:05:33;;;;;;;40.47;10.35;;;;;;;;;;19812644;30;20509;-60
2022/02/17 19:15:35;;;;;;;17.73;9.07;;;;;;;;;;19816750;30;20110;-60
2022/02/17 19:25:37;;;;;;;19.23;9.48;;;;;;;;;;19815023;30;20070;-65
2022/02/17 19:35:39;;;;;;;22.90;9.50;;;;;;;;;;19814615;30;20055;-65
2022/02/17 19:45:42;;;;;;;20.73;10.77;;;;;;;;;;19814708;30;20063;-64
2022/02/17 19:55:44;;;;;;;20.02;9.88;;;;;;;;;;19814448;29;20138;-65
2022/02/17 20:05:47;;;;;;;16.50;9.48;;;;;;;;;;19828913;30;20063;-62
2022/02/17 20:15:50;;;;;;;17.20;9.90;;;;;;;;;;19828829;30;20131;-61
2022/02/17 20:25:52;;;;;;;15.38;7.72;;;;;;;;;;19827175;30;20481;-59
2022/02/17 20:35:54;;;;;;;17.42;7.07;;;;;;;;;;19827098;30;20110;-60
2022/02/17 20:56:26;;;;;;;7.93;5.28;;;;;;;;;;19826212;30;20524;-59
2022/02/17 21:06:29;;;;;;;17.63;6.55;;;;;;;;;;19826034;30;20060;-60
2022/02/17 21:16:33;;;;;;;11.20;5.68;;;;;;;;;;19824202;29;20481;-60
2022/02/17 21:26:37;;;;;;;11.97;6.07;;;;;;;;;;19822775;29;20146;-61
2022/02/17 21:36:39;;;;;;;9.52;4.78;;;;;;;;;;19823574;30;20424;-60
2022/02/17 21:46:42;;;;;;;31.98;21.85;;;;;;;;;;19822484;30;20433;-60
2022/02/17 21:56:45;;;;;;;6.88;4.57;;;;;;;;;;19821709;30;20052;-62
2022/02/17 22:06:48;;;;;;;13.00;5.50;;;;;;;;;;19821005;30;20063;-61
2022/02/17 22:16:50;;;;;;;9.68;5.05;;;;;;;;;;19820511;30;20055;-61
2022/02/17 22:26:52;;;;;;;8.25;5.28;;;;;;;;;;19818995;29;20528;-60
2022/02/17 22:36:54;;;;;;;8.95;5.18;;;;;;;;;;19818826;30;20055;-61
2022/02/17 22:46:56;;;;;;;10.18;5.13;;;;;;;;;;19818449;30;20557;-64
2022/02/17 22:56:58;;;;;;;9.63;5.63;;;;;;;;;;19817492;30;20115;-62
2022/02/17 23:07:00;;;;;;;10.00;5.50;;;;;;;;;;19817366;30;20051;-61
2022/02/17 23:27:23;;;;;;;10.27;5.43;;;;;;;;;;19815716;30;20424;-61
2022/02/17 23:37:25;;;;;;;12.95;6.82;;;;;;;;;;19798239;30;20058;-61
2022/02/17 23:47:28;;;;;;;9.75;5.65;;;;;;;;;;19815076;30;20094;-60
2022/02/17 23:57:30;;;;;;;9.38;5.28;;;;;;;;;;19814761;30;20546;-61
